RPLC/CRK METAR and TAF weather

Enter ICAO airport designator
Station Type Date Time Source
RPLC METAR 2020/07/10 14:00 UTC NOAA

RPLC 101400Z 04002KT 8000 SCT020 BKN100 26/24 Q1011 NOSIG RMK A2985


Station Type Date Time Source
RPLC Decoded METAR 2020/07/10 14:00 UTC NOAA

Clarkfield Pampanga International Airport, Philippines (RPLC) 15-11N 120-33E
Jul 10, 2020 - 10:00 AM EDT / 2020.07.10 1400 UTC
Wind: from the NE (040 degrees) at 2 MPH (2 KT):0
Visibility: 4 mile(s):0
Sky conditions: mostly cloudy
Temperature: 78 F (26 C)
Dew Point: 75 F (24 C)
Relative Humidity: 88%
Pressure (altimeter): 29.85 in. Hg (1011 hPa)
ob: RPLC 101400Z 04002KT 8000 SCT020 BKN100 26/24 Q1011 NOSIG RMK A2985
cycle: 14

Station Type Date Time Source
RPLC TAF 2020/07/10 12:03 UTC NOAA

TAF RPLC 101100Z 1012/1118 19006KT 9999 SCT020 BKN300 TX35/1106Z TN25/1021Z
TEMPO 1012/1018 27008KT 6000 TS -SHRA FEW015CB SCT020 BKN100

Example: see airport list